Randy Martin — WDB2136 — position and weather

sailwx.info

Track history (hours):
 
Tides and Currents Weather Stations Pressure Air Temp Water Temp Dewpoint Dewpoint Depression Visibility Wind Speed Wind Dir Waves Ship Positions

Randy Martin

Owner: BLESSEY ENTERPRISES INC, HARAHAN, LA. More information available from US FCC via Universal Licensing System.

Last reported at 2018-Jan-20 21:44 UTC. Time now 2018-Jan-21 16:21 UTC.
Position N 29°44' W 095°03'.

Length 25 m.

MMSI: 365824084.

Date/timePositionNaut miles runAvg speedWind from/ knotsBaromVisibWave heightAir tempDewpointWater temp
2018-Jan-20 21:44N 29°44' W 095°03'0 0.0
2018-Jan-20 13:58N 29°44' W 095°03'1 0.1
2018-Jan-19 23:35N 29°45' W 095°04'1 3.8
2018-Jan-19 23:25N 29°44' W 095°03'3 4.5
2018-Jan-19 22:45N 29°42' W 095°01'2 7.3
2018-Jan-19 22:30N 29°41' W 094°59'4 7.7
2018-Jan-19 22:00N 29°38' W 094°58'4 7.7
2018-Jan-19 21:30N 29°34' W 094°56'  
2018-Jan-12 14:34N 29°47' W 095°05'0 0.0
2018-Jan-12 14:25N 29°47' W 095°05'0 0.0
2018-Jan-12 13:31N 29°47' W 095°05'0 0.0
2018-Jan-12 13:22N 29°47' W 095°05'0 0.0
2018-Jan-12 12:57N 29°47' W 095°05'0 0.0
2018-Jan-12 12:29N 29°47' W 095°05'0 0.0
2018-Jan-12 12:00N 29°47' W 095°05'0 0.0
2018-Jan-12 11:30N 29°47' W 095°05'0 0.0
2018-Jan-12 11:00N 29°47' W 095°05'0 0.0
2018-Jan-12 10:30N 29°47' W 095°05'0 0.0
2018-Jan-12 10:00N 29°47' W 095°05'0 0.0
2018-Jan-12 09:27N 29°47' W 095°05'0 0.0
2018-Jan-12 08:56N 29°47' W 095°05'0 0.0
2018-Jan-12 08:26N 29°47' W 095°05'0 0.0
2018-Jan-12 07:56N 29°47' W 095°05'0 0.0
2018-Jan-12 07:27N 29°47' W 095°05'0 0.0
2018-Jan-12 06:43N 29°47' W 095°05'0 0.0
2018-Jan-12 06:27N 29°47' W 095°05'0 0.0
2018-Jan-12 05:52N 29°47' W 095°05'0 0.1
2018-Jan-12 05:30N 29°47' W 095°05'0 0.0
2018-Jan-12 04:54N 29°47' W 095°05'0 0.0
2018-Jan-12 04:25N 29°47' W 095°05'0 0.0
2018-Jan-12 03:48N 29°47' W 095°05'0 0.0
2018-Jan-12 03:28N 29°47' W 095°05'0 0.0
2018-Jan-12 02:59N 29°47' W 095°05'0 0.0
2018-Jan-12 02:25N 29°47' W 095°05'0 0.0
2018-Jan-11 23:55N 29°47' W 095°05'0 0.0
2018-Jan-11 23:28N 29°47' W 095°05'0 0.0
2018-Jan-11 22:58N 29°47' W 095°05'0 0.0
2018-Jan-11 22:29N 29°47' W 095°05'0 0.0
2018-Jan-11 22:00N 29°47' W 095°05'0 0.0
2018-Jan-11 21:29N 29°47' W 095°05'1 1.2
2018-Jan-11 20:48N 29°47' W 095°05'0 0.0
2018-Jan-11 20:24N 29°47' W 095°05'3 0.4
2018-Jan-11 12:57N 29°44' W 095°04'3 4.9
2018-Jan-11 12:25N 29°43' W 095°01'2 5.6
2018-Jan-11 12:00N 29°41' W 094°59'3 6.6
2018-Jan-11 11:30N 29°38' W 094°58'3 6.8
2018-Jan-11 11:00N 29°35' W 094°56'  
Track history (hours):
 
Tides and Currents Weather Stations Pressure Air Temp Water Temp Dewpoint Dewpoint Depression Visibility Wind Speed Wind Dir Waves Ship Positions

Randy Martin

Owner: BLESSEY ENTERPRISES INC, HARAHAN, LA. More information available from US FCC via Universal Licensing System.

Last reported at 2018-Jan-20 21:44 UTC. Time now 2018-Jan-21 16:21 UTC.
Position N 29°44' W 095°03'.

Length 25 m.

MMSI: 365824084.

Date/timePositionNaut miles runAvg speedWind from/ knotsBaromVisibWave heightAir tempDewpointWater temp
2018-Jan-20 21:44N 29°44' W 095°03'0 0.0
2018-Jan-20 13:58N 29°44' W 095°03'1 0.1
2018-Jan-19 23:35N 29°45' W 095°04'1 3.8
2018-Jan-19 23:25N 29°44' W 095°03'3 4.5
2018-Jan-19 22:45N 29°42' W 095°01'2 7.3
2018-Jan-19 22:30N 29°41' W 094°59'4 7.7
2018-Jan-19 22:00N 29°38' W 094°58'4 7.7
2018-Jan-19 21:30N 29°34' W 094°56'  
2018-Jan-12 14:34N 29°47' W 095°05'0 0.0
2018-Jan-12 14:25N 29°47' W 095°05'0 0.0
2018-Jan-12 13:31N 29°47' W 095°05'0 0.0
2018-Jan-12 13:22N 29°47' W 095°05'0 0.0
2018-Jan-12 12:57N 29°47' W 095°05'0 0.0
2018-Jan-12 12:29N 29°47' W 095°05'0 0.0
2018-Jan-12 12:00N 29°47' W 095°05'0 0.0
2018-Jan-12 11:30N 29°47' W 095°05'0 0.0
2018-Jan-12 11:00N 29°47' W 095°05'0 0.0
2018-Jan-12 10:30N 29°47' W 095°05'0 0.0
2018-Jan-12 10:00N 29°47' W 095°05'0 0.0
2018-Jan-12 09:27N 29°47' W 095°05'0 0.0
2018-Jan-12 08:56N 29°47' W 095°05'0 0.0
2018-Jan-12 08:26N 29°47' W 095°05'0 0.0
2018-Jan-12 07:56N 29°47' W 095°05'0 0.0
2018-Jan-12 07:27N 29°47' W 095°05'0 0.0
2018-Jan-12 06:43N 29°47' W 095°05'0 0.0
2018-Jan-12 06:27N 29°47' W 095°05'0 0.0
2018-Jan-12 05:52N 29°47' W 095°05'0 0.1
2018-Jan-12 05:30N 29°47' W 095°05'0 0.0
2018-Jan-12 04:54N 29°47' W 095°05'0 0.0
2018-Jan-12 04:25N 29°47' W 095°05'0 0.0
2018-Jan-12 03:48N 29°47' W 095°05'0 0.0
2018-Jan-12 03:28N 29°47' W 095°05'0 0.0
2018-Jan-12 02:59N 29°47' W 095°05'0 0.0
2018-Jan-12 02:25N 29°47' W 095°05'0 0.0
2018-Jan-11 23:55N 29°47' W 095°05'0 0.0
2018-Jan-11 23:28N 29°47' W 095°05'0 0.0
2018-Jan-11 22:58N 29°47' W 095°05'0 0.0
2018-Jan-11 22:29N 29°47' W 095°05'0 0.0
2018-Jan-11 22:00N 29°47' W 095°05'0 0.0
2018-Jan-11 21:29N 29°47' W 095°05'1 1.2
2018-Jan-11 20:48N 29°47' W 095°05'0 0.0
2018-Jan-11 20:24N 29°47' W 095°05'3 0.4
2018-Jan-11 12:57N 29°44' W 095°04'3 4.9
2018-Jan-11 12:25N 29°43' W 095°01'2 5.6
2018-Jan-11 12:00N 29°41' W 094°59'3 6.6
2018-Jan-11 11:30N 29°38' W 094°58'3 6.8
2018-Jan-11 11:00N 29°35' W 094°56'  

Dump ship's entire track history